createdAt,value
2023-01-20T00:01:46.499Z,94.54
2023-01-20T00:04:15.085Z,93.69
2023-01-20T00:06:42.377Z,94.29
2023-01-20T00:09:14.601Z,93.80
2023-01-20T00:11:41.940Z,94.19
2023-01-20T00:14:09.864Z,94.81
2023-01-20T00:16:37.127Z,91.94
2023-01-20T00:19:04.547Z,91.49
2023-01-20T00:21:32.075Z,92.38
2023-01-20T00:23:59.900Z,92.79
2023-01-20T00:26:27.218Z,94.10
2023-01-20T00:28:55.801Z,94.32
2023-01-20T00:31:28.649Z,94.44
2023-01-20T00:33:57.999Z,94.91
2023-01-20T00:36:27.246Z,94.00
2023-01-20T00:38:54.617Z,96.40
2023-01-20T00:41:21.907Z,96.50
2023-01-20T00:43:49.486Z,95.56
2023-01-20T00:46:17.014Z,95.39
2023-01-20T00:48:44.315Z,95.61
2023-01-20T00:51:12.645Z,95.17
2023-01-20T00:53:39.941Z,95.14
2023-01-20T00:56:07.705Z,94.17
2023-01-20T00:58:35.027Z,93.44
2023-01-20T01:01:02.740Z,93.67
2023-01-20T01:03:30.354Z,93.90
2023-01-20T01:06:15.151Z,93.37
2023-01-20T01:08:43.604Z,93.29
2023-01-20T01:11:12.031Z,94.59
2023-01-20T01:13:39.419Z,94.01
2023-01-20T01:16:13.780Z,93.60
2023-01-20T01:18:41.823Z,91.99
2023-01-20T01:21:10.684Z,92.77
2023-01-20T01:23:38.093Z,92.34
2023-01-20T01:26:05.588Z,93.30
2023-01-20T01:28:32.954Z,94.05
2023-01-20T01:31:02.058Z,93.85
2023-01-20T01:33:30.078Z,92.02
2023-01-20T01:35:58.900Z,92.18
2023-01-20T01:38:27.010Z,93.15
2023-01-20T01:40:55.491Z,93.90
2023-01-20T01:43:29.145Z,94.11
2023-01-20T01:45:56.980Z,92.50
2023-01-20T01:48:28.999Z,92.86
2023-01-20T01:50:57.788Z,92.87
2023-01-20T01:53:25.833Z,92.17
2023-01-20T01:55:59.476Z,91.84
2023-01-20T01:58:30.477Z,93.02
2023-01-20T02:00:58.103Z,92.27
2023-01-20T02:03:50.688Z,90.98
2023-01-20T02:06:18.177Z,90.77
2023-01-20T02:08:45.852Z,92.50
2023-01-20T02:11:13.285Z,92.94
2023-01-20T02:13:40.831Z,93.36
2023-01-20T02:16:15.425Z,92.69
2023-01-20T02:18:51.743Z,92.98
2023-01-20T02:21:34.105Z,91.45
2023-01-20T02:24:42.939Z,90.66
2023-01-20T02:27:41.321Z,90.94
2023-01-20T02:30:21.761Z,92.87
2023-01-20T02:32:55.558Z,92.53
2023-01-20T02:35:30.259Z,93.89
2023-01-20T02:38:07.210Z,95.20
2023-01-20T02:40:40.590Z,97.77
2023-01-20T02:43:42.161Z,95.86
2023-01-20T02:46:17.941Z,96.35
2023-01-20T02:48:52.406Z,99.04
2023-01-20T02:51:26.323Z,97.06
2023-01-20T02:53:58.294Z,96.69
2023-01-20T02:56:28.259Z,95.97
2023-01-20T02:58:56.865Z,94.48
2023-01-20T03:01:28.742Z,93.51
2023-01-20T03:03:58.304Z,95.75
2023-01-20T03:06:28.749Z,95.97
2023-01-20T03:08:56.971Z,94.64
2023-01-20T03:11:24.352Z,93.60
2023-01-20T03:13:57.567Z,92.72
2023-01-20T03:16:26.944Z,92.59
2023-01-20T03:18:55.376Z,92.94
2023-01-20T03:21:23.216Z,93.70
2023-01-20T03:23:52.775Z,95.92
2023-01-20T03:26:22.690Z,97.96
2023-01-20T03:28:50.377Z,98.26
2023-01-20T03:31:55.370Z,97.95
2023-01-20T03:34:23.753Z,98.78
2023-01-20T03:36:52.428Z,98.66
2023-01-20T03:39:20.361Z,95.54
2023-01-20T03:42:09.468Z,93.08
2023-01-20T03:45:01.572Z,94.95
2023-01-20T03:47:37.900Z,95.70
2023-01-20T03:50:45.097Z,95.31
2023-01-20T03:53:45.465Z,89.95
2023-01-20T03:56:27.323Z,89.73
2023-01-20T03:58:56.145Z,88.46
2023-01-20T04:01:38.875Z,87.43
2023-01-20T04:04:26.187Z,87.76
2023-01-20T04:06:53.478Z,86.76
2023-01-20T04:09:28.605Z,86.91
2023-01-20T04:11:55.818Z,86.46
2023-01-20T04:14:23.363Z,87.08
2023-01-20T04:16:56.261Z,87.28
2023-01-20T04:19:24.911Z,87.74
2023-01-20T04:22:06.676Z,86.64
2023-01-20T04:24:44.488Z,87.71
2023-01-20T04:27:11.885Z,89.76
2023-01-20T04:29:41.474Z,90.23
2023-01-20T04:32:11.011Z,90.65
2023-01-20T04:34:38.961Z,89.62
2023-01-20T04:37:06.277Z,89.54
2023-01-20T04:39:33.720Z,88.45
2023-01-20T04:42:01.126Z,87.61
2023-01-20T04:44:28.416Z,88.57
2023-01-20T04:46:59.248Z,88.73
2023-01-20T04:49:26.576Z,87.74
2023-01-20T04:51:54.140Z,88.66
2023-01-20T04:54:21.430Z,89.00
2023-01-20T04:56:49.321Z,89.63
2023-01-20T04:59:16.789Z,88.47
2023-01-20T05:01:44.273Z,86.12
2023-01-20T05:04:11.669Z,87.45
2023-01-20T05:06:42.710Z,87.37
2023-01-20T05:09:13.863Z,88.41
2023-01-20T05:11:42.016Z,87.96
2023-01-20T05:14:09.353Z,87.92
2023-01-20T05:16:36.768Z,87.23
2023-01-20T05:19:04.186Z,87.15
2023-01-20T05:21:31.882Z,87.89
2023-01-20T05:23:59.348Z,86.34
2023-01-20T05:26:26.960Z,84.98
2023-01-20T05:28:54.386Z,83.62
2023-01-20T05:31:21.928Z,84.66
2023-01-20T05:33:49.378Z,84.64
2023-01-20T05:36:16.881Z,83.74
2023-01-20T05:38:44.123Z,83.74
2023-01-20T05:41:11.539Z,84.28
2023-01-20T05:43:38.848Z,84.36
2023-01-20T05:46:06.324Z,85.23
2023-01-20T05:48:33.675Z,85.90
2023-01-20T05:51:00.992Z,86.87
2023-01-20T05:53:33.228Z,86.53
2023-01-20T05:56:01.908Z,87.81
2023-01-20T05:58:32.093Z,87.24
2023-01-20T06:01:11.067Z,87.07
2023-01-20T06:03:38.642Z,86.86
2023-01-20T06:06:08.291Z,82.89
2023-01-20T06:08:35.977Z,83.49
2023-01-20T06:11:03.361Z,83.08
2023-01-20T06:13:30.666Z,84.11
2023-01-20T06:15:58.182Z,85.15
2023-01-20T06:18:25.604Z,84.87
2023-01-20T06:20:57.170Z,83.74
2023-01-20T06:23:25.298Z,84.54
2023-01-20T06:26:11.902Z,84.19
2023-01-20T06:28:39.446Z,84.18
2023-01-20T06:31:17.109Z,83.48
2023-01-20T06:33:44.475Z,83.57
2023-01-20T06:36:17.626Z,82.63
2023-01-20T06:38:50.626Z,82.71
2023-01-20T06:41:19.117Z,82.74
2023-01-20T06:43:46.537Z,82.20
2023-01-20T06:46:15.780Z,81.90
2023-01-20T06:48:44.014Z,82.22
2023-01-20T06:51:19.553Z,82.57
2023-01-20T06:53:47.503Z,82.86
2023-01-20T06:56:15.824Z,82.64
2023-01-20T06:58:43.448Z,82.51
2023-01-20T07:01:22.559Z,81.68
2023-01-20T07:03:50.449Z,81.51
2023-01-20T07:06:38.553Z,80.83
2023-01-20T07:09:08.229Z,81.62
2023-01-20T07:11:35.956Z,81.21
2023-01-20T07:14:04.308Z,80.29
2023-01-20T07:16:31.847Z,80.22
2023-01-20T07:18:59.351Z,79.64
2023-01-20T07:21:27.272Z,80.73
2023-01-20T07:23:54.635Z,79.91
2023-01-20T07:26:24.327Z,79.54
2023-01-20T07:28:52.199Z,79.76
2023-01-20T07:31:21.879Z,79.58
2023-01-20T07:33:50.020Z,79.04
2023-01-20T07:36:17.796Z,79.63
2023-01-20T07:38:49.468Z,79.02
2023-01-20T07:41:18.247Z,78.57
2023-01-20T07:43:47.835Z,80.13
2023-01-20T07:46:15.458Z,77.52
2023-01-20T07:48:42.981Z,77.64
2023-01-20T07:51:12.350Z,77.60
2023-01-20T07:53:46.844Z,77.44
2023-01-20T07:56:16.849Z,77.80
2023-01-20T07:58:49.176Z,78.18
2023-01-20T08:01:19.981Z,77.57
2023-01-20T08:03:48.917Z,77.86
2023-01-20T08:06:18.649Z,77.29
2023-01-20T08:08:46.230Z,77.19
2023-01-20T08:11:15.079Z,77.12
2023-01-20T08:13:42.800Z,76.08
2023-01-20T08:16:12.122Z,75.85
2023-01-20T08:18:39.814Z,76.75
2023-01-20T08:21:08.523Z,75.72
2023-01-20T08:23:36.412Z,76.35
2023-01-20T08:26:08.390Z,77.29
2023-01-20T08:28:36.388Z,80.33
2023-01-20T08:31:12.037Z,79.00
2023-01-20T08:33:41.264Z,72.33
2023-01-20T08:36:16.600Z,71.06
2023-01-20T08:38:44.620Z,73.61
2023-01-20T08:41:18.763Z,74.15
2023-01-20T08:43:52.848Z,76.40
2023-01-20T08:46:21.964Z,73.29
2023-01-20T08:48:50.815Z,73.71
2023-01-20T08:51:21.900Z,74.52
2023-01-20T08:53:49.462Z,74.15
2023-01-20T08:56:18.038Z,73.17
2023-01-20T08:58:45.641Z,73.21
2023-01-20T09:01:21.449Z,73.94
2023-01-20T09:04:03.885Z,75.99
2023-01-20T09:06:53.886Z,75.90
2023-01-20T09:09:22.538Z,74.09
2023-01-20T09:11:52.764Z,76.64
2023-01-20T09:14:21.356Z,77.77
2023-01-20T09:16:49.019Z,78.70
2023-01-20T09:19:16.514Z,76.76
2023-01-20T09:21:44.033Z,77.19
2023-01-20T09:24:11.589Z,76.52
2023-01-20T09:26:39.105Z,76.17
2023-01-20T09:29:10.411Z,73.29
2023-01-20T09:31:39.442Z,72.47
2023-01-20T09:34:06.937Z,76.27
2023-01-20T09:36:34.302Z,74.72
2023-01-20T09:39:20.204Z,74.95
2023-01-20T09:42:07.664Z,75.11
2023-01-20T09:44:34.958Z,74.66
2023-01-20T09:47:20.689Z,76.01
2023-01-20T09:50:30.498Z,75.88
2023-01-20T09:53:16.604Z,75.94
2023-01-20T09:56:08.599Z,76.52
2023-01-20T09:58:46.466Z,75.40
2023-01-20T10:01:35.402Z,76.81
2023-01-20T10:04:24.096Z,77.90
2023-01-20T10:07:21.292Z,78.23
2023-01-20T10:09:59.055Z,76.74
2023-01-20T10:12:33.797Z,77.53
2023-01-20T10:15:08.213Z,75.97
2023-01-20T10:17:41.214Z,78.56
2023-01-20T10:20:14.728Z,74.31
2023-01-20T10:23:08.658Z,74.99
2023-01-20T10:25:44.246Z,73.59
2023-01-20T10:28:14.840Z,72.26
2023-01-20T10:30:42.356Z,73.07
2023-01-20T10:33:11.249Z,73.32
2023-01-20T10:35:43.688Z,73.41
2023-01-20T10:38:39.160Z,73.22
2023-01-20T10:41:20.477Z,74.06
2023-01-20T10:43:48.149Z,71.69
2023-01-20T10:46:18.447Z,72.86
2023-01-20T10:49:07.960Z,69.74
2023-01-20T10:51:50.493Z,70.64
2023-01-20T10:54:23.795Z,70.33
2023-01-20T10:56:53.927Z,71.99
2023-01-20T10:59:29.157Z,70.78
2023-01-20T11:02:11.329Z,70.22
2023-01-20T11:04:39.895Z,71.82
2023-01-20T11:07:18.420Z,70.94
2023-01-20T11:09:47.998Z,69.50
2023-01-20T11:12:18.221Z,70.87
2023-01-20T11:14:46.614Z,70.03
2023-01-20T11:17:18.792Z,66.97
2023-01-20T11:19:58.269Z,69.24
2023-01-20T11:22:31.788Z,69.74
2023-01-20T11:25:00.560Z,69.48
2023-01-20T11:27:40.819Z,69.32
2023-01-20T11:30:31.014Z,71.80
2023-01-20T11:33:18.968Z,70.15
2023-01-20T11:36:16.301Z,67.63
2023-01-20T11:38:45.639Z,71.99
2023-01-20T11:41:29.884Z,71.18
2023-01-20T11:43:59.745Z,70.95
2023-01-20T11:46:33.021Z,67.07
2023-01-20T11:49:22.483Z,67.33
2023-01-20T11:51:54.058Z,67.34
2023-01-20T11:54:26.977Z,68.01
2023-01-20T11:56:57.563Z,65.95
2023-01-20T11:59:30.763Z,63.42
2023-01-20T12:01:58.290Z,63.81
2023-01-20T12:04:28.692Z,65.20
2023-01-20T12:07:00.132Z,66.93
2023-01-20T12:09:34.369Z,69.23
2023-01-20T12:12:20.429Z,68.70
2023-01-20T12:14:52.885Z,66.46
2023-01-20T12:17:29.496Z,68.61
2023-01-20T12:20:08.806Z,70.47
2023-01-20T12:22:49.620Z,71.73
2023-01-20T12:25:30.840Z,69.14
2023-01-20T12:28:06.014Z,68.75
2023-01-20T12:30:38.234Z,69.52
2023-01-20T12:33:11.837Z,70.20
2023-01-20T12:35:44.500Z,70.54
2023-01-20T12:38:18.397Z,70.69
2023-01-20T12:40:45.714Z,71.53
2023-01-20T12:43:31.294Z,70.06
2023-01-20T12:46:29.269Z,68.55
2023-01-20T12:49:08.558Z,69.14
2023-01-20T12:51:39.200Z,71.06
2023-01-20T12:54:47.176Z,69.71
2023-01-20T12:57:58.798Z,67.49
2023-01-20T13:01:23.057Z,68.79
2023-01-20T13:04:15.975Z,68.57
2023-01-20T13:07:06.866Z,68.15
2023-01-20T13:10:04.422Z,66.56
2023-01-20T13:12:41.314Z,65.65
2023-01-20T13:15:34.032Z,65.04
2023-01-20T13:18:22.699Z,65.58
2023-01-20T13:20:51.697Z,66.90
2023-01-20T13:23:24.214Z,64.71
2023-01-20T13:25:52.391Z,65.96
2023-01-20T13:28:22.407Z,66.70
2023-01-20T13:30:51.685Z,68.76
2023-01-20T13:33:39.233Z,68.82
2023-01-20T13:36:19.166Z,68.82
2023-01-20T13:38:48.559Z,68.74
2023-01-20T13:41:46.768Z,68.79
2023-01-20T13:44:35.328Z,67.80
2023-01-20T13:47:08.032Z,67.30
2023-01-20T13:49:48.764Z,66.88
2023-01-20T13:53:01.850Z,66.95
2023-01-20T13:55:41.432Z,67.23
2023-01-20T13:58:17.719Z,67.24
2023-01-20T14:00:46.193Z,67.53
2023-01-20T14:03:19.585Z,67.40
2023-01-20T14:05:50.995Z,68.16
2023-01-20T14:08:18.920Z,67.29
2023-01-20T14:10:46.597Z,68.97
2023-01-20T14:13:25.116Z,69.76
2023-01-20T14:15:54.790Z,67.99
2023-01-20T14:18:23.662Z,67.04
2023-01-20T14:21:18.262Z,66.61
2023-01-20T14:23:48.422Z,66.34
2023-01-20T14:26:25.706Z,67.14
2023-01-20T14:28:57.503Z,66.48
2023-01-20T14:31:45.522Z,65.28
2023-01-20T14:34:33.059Z,66.63
2023-01-20T14:37:16.331Z,67.76
2023-01-20T14:39:48.528Z,64.43
2023-01-20T14:42:21.458Z,67.30
2023-01-20T14:44:53.554Z,66.65
2023-01-20T14:47:22.318Z,65.62
2023-01-20T14:49:51.381Z,65.10
2023-01-20T14:52:27.018Z,65.11
2023-01-20T14:54:56.445Z,61.47
2023-01-20T14:57:34.200Z,60.79
2023-01-20T15:00:24.228Z,60.91
2023-01-20T15:03:09.876Z,61.52
2023-01-20T15:05:41.133Z,61.64
2023-01-20T15:08:18.801Z,62.58
2023-01-20T15:10:46.363Z,62.75
2023-01-20T15:13:25.460Z,63.16
2023-01-20T15:16:12.101Z,63.86
2023-01-20T15:18:40.023Z,64.39
2023-01-20T15:21:27.133Z,63.78
2023-01-20T15:23:54.569Z,64.79
2023-01-20T15:26:28.590Z,65.24
2023-01-20T15:28:56.861Z,64.68
2023-01-20T15:31:24.966Z,64.19
2023-01-20T15:33:52.422Z,65.24
2023-01-20T15:36:27.900Z,66.28
2023-01-20T15:38:55.458Z,65.06
2023-01-20T15:41:22.937Z,65.99
2023-01-20T15:43:52.502Z,66.48
2023-01-20T15:46:19.929Z,64.49
2023-01-20T15:48:47.538Z,64.40
2023-01-20T15:51:16.944Z,64.36
2023-01-20T15:53:44.754Z,65.33
2023-01-20T15:56:23.362Z,66.09
2023-01-20T15:58:50.824Z,64.04
2023-01-20T16:01:20.769Z,64.36
2023-01-20T16:03:48.123Z,65.01
2023-01-20T16:06:17.347Z,65.24
2023-01-20T16:08:46.909Z,65.53
2023-01-20T16:11:15.361Z,65.64
2023-01-20T16:13:42.687Z,65.10
2023-01-20T16:16:12.338Z,66.33
2023-01-20T16:18:39.660Z,66.50
2023-01-20T16:21:11.135Z,66.26
2023-01-20T16:23:38.659Z,65.28
2023-01-20T16:26:26.626Z,66.60
2023-01-20T16:28:56.383Z,65.71
2023-01-20T16:31:24.641Z,66.49
2023-01-20T16:33:52.929Z,66.48
2023-01-20T16:36:22.068Z,66.79
2023-01-20T16:38:50.555Z,67.80
2023-01-20T16:41:23.586Z,66.84
2023-01-20T16:43:52.162Z,67.93
2023-01-20T16:46:21.875Z,67.77
2023-01-20T16:48:49.945Z,66.19
2023-01-20T16:51:19.855Z,67.62
2023-01-20T16:53:47.800Z,67.90
2023-01-20T16:56:30.945Z,68.30
2023-01-20T16:59:01.624Z,67.24
2023-01-20T17:01:30.859Z,68.57
2023-01-20T17:04:03.019Z,69.64
2023-01-20T17:06:33.377Z,71.00
2023-01-20T17:09:02.417Z,69.33
2023-01-20T17:11:35.704Z,68.37
2023-01-20T17:14:05.588Z,68.61
2023-01-20T17:16:33.402Z,69.16
2023-01-20T17:19:01.582Z,70.86
2023-01-20T17:21:31.512Z,69.84
2023-01-20T17:24:02.827Z,71.30
2023-01-20T17:26:30.892Z,70.38
2023-01-20T17:29:02.229Z,71.10
2023-01-20T17:31:33.334Z,71.13
2023-01-20T17:34:00.664Z,69.14
2023-01-20T17:36:29.546Z,70.81
2023-01-20T17:38:58.071Z,70.71
2023-01-20T17:41:25.343Z,70.75
2023-01-20T17:43:52.625Z,70.49
2023-01-20T17:46:25.446Z,70.16
2023-01-20T17:48:52.770Z,71.06
2023-01-20T17:51:28.567Z,70.34
2023-01-20T17:53:58.302Z,69.28
2023-01-20T17:56:26.077Z,69.37
2023-01-20T17:58:54.005Z,68.75
2023-01-20T18:01:30.231Z,68.60
2023-01-20T18:03:59.090Z,69.68
2023-01-20T18:06:27.730Z,69.55
2023-01-20T18:08:57.893Z,70.03
2023-01-20T18:11:27.432Z,68.56
2023-01-20T18:13:56.309Z,66.79
2023-01-20T18:16:26.941Z,67.92
2023-01-20T18:18:58.894Z,67.05
2023-01-20T18:21:29.902Z,67.82
2023-01-20T18:23:58.166Z,68.21
2023-01-20T18:26:29.575Z,67.51
2023-01-20T18:28:58.494Z,67.59
2023-01-20T18:31:27.221Z,68.46
2023-01-20T18:34:03.514Z,67.77
2023-01-20T18:36:33.675Z,67.43
2023-01-20T18:39:01.718Z,68.69
2023-01-20T18:41:30.705Z,68.44
2023-01-20T18:44:16.035Z,69.85
2023-01-20T18:46:43.896Z,67.94
2023-01-20T18:49:13.587Z,68.04
2023-01-20T18:51:44.401Z,68.43
2023-01-20T18:54:20.908Z,69.39
2023-01-20T18:56:48.254Z,69.06
2023-01-20T18:59:15.617Z,69.35
2023-01-20T19:01:43.142Z,70.61
2023-01-20T19:04:12.159Z,69.68
2023-01-20T19:06:42.066Z,70.87
2023-01-20T19:09:10.152Z,69.97
2023-01-20T19:11:42.333Z,70.62
2023-01-20T19:14:13.306Z,69.87
2023-01-20T19:16:49.300Z,69.73
2023-01-20T19:19:20.365Z,70.87
2023-01-20T19:21:51.928Z,72.33
2023-01-20T19:24:20.751Z,70.94
2023-01-20T19:26:48.178Z,70.71
2023-01-20T19:29:17.234Z,70.89
2023-01-20T19:31:44.685Z,71.53
2023-01-20T19:34:12.908Z,72.15
2023-01-20T19:36:40.468Z,72.69
2023-01-20T19:39:07.949Z,71.98
2023-01-20T19:41:36.106Z,72.80
2023-01-20T19:44:06.509Z,74.10
2023-01-20T19:46:36.762Z,74.43
2023-01-20T19:49:04.586Z,74.23
2023-01-20T19:51:32.107Z,74.24
2023-01-20T19:54:01.079Z,76.04
2023-01-20T19:56:30.771Z,75.83
2023-01-20T19:59:00.790Z,75.70
2023-01-20T20:01:31.433Z,75.58
2023-01-20T20:03:59.349Z,76.33
2023-01-20T20:06:37.966Z,76.30
2023-01-20T20:09:08.160Z,75.29
2023-01-20T20:11:36.850Z,75.54
2023-01-20T20:14:07.695Z,73.97
2023-01-20T20:16:36.870Z,75.25
2023-01-20T20:19:05.573Z,75.40
2023-01-20T20:21:33.752Z,76.87
2023-01-20T20:24:01.727Z,77.54
2023-01-20T20:26:31.555Z,77.58
2023-01-20T20:28:59.821Z,79.16
2023-01-20T20:31:29.479Z,77.93
2023-01-20T20:34:01.591Z,78.42
2023-01-20T20:36:31.068Z,78.78
2023-01-20T20:38:59.239Z,78.39
2023-01-20T20:41:30.608Z,78.26
2023-01-20T20:43:59.338Z,77.75
2023-01-20T20:46:28.182Z,78.89
2023-01-20T20:48:59.248Z,76.03
2023-01-20T20:51:28.361Z,77.43
2023-01-20T20:53:56.398Z,78.19
2023-01-20T20:56:24.793Z,76.86
2023-01-20T20:59:01.443Z,77.96
2023-01-20T21:01:30.766Z,80.30
2023-01-20T21:04:00.401Z,77.09
2023-01-20T21:06:28.441Z,76.76
2023-01-20T21:08:57.050Z,79.14
2023-01-20T21:11:24.931Z,78.44
2023-01-20T21:13:53.082Z,79.37
2023-01-20T21:16:23.109Z,78.50
2023-01-20T21:18:53.055Z,80.21
2023-01-20T21:21:20.985Z,78.21
2023-01-20T21:23:54.115Z,77.82
2023-01-20T21:26:22.521Z,77.62
2023-01-20T21:28:49.762Z,78.63
2023-01-20T21:31:21.135Z,78.85
2023-01-20T21:33:54.915Z,80.00
2023-01-20T21:36:22.901Z,79.76
2023-01-20T21:38:53.521Z,80.53
2023-01-20T21:41:21.290Z,80.32
2023-01-20T21:44:07.633Z,78.55
2023-01-20T21:46:40.286Z,80.68
2023-01-20T21:49:27.317Z,81.67
2023-01-20T21:52:14.764Z,80.65
2023-01-20T21:54:42.251Z,81.86
2023-01-20T21:57:09.659Z,80.74
2023-01-20T21:59:38.003Z,81.16
2023-01-20T22:02:05.856Z,81.76
2023-01-20T22:04:33.621Z,82.03
2023-01-20T22:07:00.886Z,82.70
2023-01-20T22:09:28.241Z,84.20
2023-01-20T22:11:55.626Z,85.33
2023-01-20T22:14:23.216Z,86.24
2023-01-20T22:16:50.584Z,85.13
2023-01-20T22:19:17.893Z,84.86
2023-01-20T22:21:45.290Z,84.43
2023-01-20T22:24:12.659Z,84.23
2023-01-20T22:26:40.232Z,83.13
2023-01-20T22:29:07.970Z,83.95
2023-01-20T22:31:35.437Z,80.65
2023-01-20T22:34:05.146Z,82.37
2023-01-20T22:36:33.696Z,81.45
2023-01-20T22:39:01.282Z,81.15
2023-01-20T22:41:28.660Z,82.96
2023-01-20T22:43:56.836Z,83.09
2023-01-20T22:46:26.280Z,81.91
2023-01-20T22:48:58.533Z,82.51
2023-01-20T22:51:28.392Z,82.41
2023-01-20T22:53:57.962Z,81.64
2023-01-20T22:56:27.607Z,82.68
2023-01-20T22:58:58.657Z,82.11
2023-01-20T23:01:31.483Z,81.65
2023-01-20T23:04:04.544Z,81.93
2023-01-20T23:06:33.694Z,81.70
2023-01-20T23:09:03.945Z,81.88
2023-01-20T23:11:31.703Z,81.57
2023-01-20T23:13:59.057Z,82.83
2023-01-20T23:16:26.444Z,82.75
2023-01-20T23:18:53.888Z,82.55
2023-01-20T23:21:21.703Z,81.75
2023-01-20T23:23:54.414Z,82.47
2023-01-20T23:26:44.599Z,82.84
2023-01-20T23:29:11.757Z,83.11
2023-01-20T23:31:39.093Z,83.70
2023-01-20T23:34:06.960Z,83.40
2023-01-20T23:36:34.259Z,83.81
2023-01-20T23:39:01.569Z,82.78
2023-01-20T23:41:28.979Z,82.23
2023-01-20T23:43:56.422Z,82.70
2023-01-20T23:46:23.764Z,83.19
2023-01-20T23:48:51.072Z,83.00
2023-01-20T23:51:18.359Z,82.51
2023-01-20T23:53:45.696Z,82.81
2023-01-20T23:56:18.456Z,83.04
2023-01-20T23:58:46.300Z,82.98
